sensor_id;sensor_type;location;lat;lon;timestamp;P1;durP1;ratioP1;P2;durP2;ratioP2
5553;SDS011;2800;49.528;8.666;2023-08-12T00:01:47;6.50;;;4.03;;
5553;SDS011;2800;49.528;8.666;2023-08-12T00:04:13;8.30;;;3.97;;
5553;SDS011;2800;49.528;8.666;2023-08-12T00:06:40;12.17;;;3.97;;
5553;SDS011;2800;49.528;8.666;2023-08-12T00:09:06;7.40;;;4.13;;
5553;SDS011;2800;49.528;8.666;2023-08-12T00:11:32;10.07;;;4.50;;
5553;SDS011;2800;49.528;8.666;2023-08-12T00:13:59;7.90;;;4.20;;
5553;SDS011;2800;49.528;8.666;2023-08-12T00:16:24;7.77;;;4.10;;
5553;SDS011;2800;49.528;8.666;2023-08-12T00:18:50;7.20;;;3.50;;
5553;SDS011;2800;49.528;8.666;2023-08-12T00:21:15;9.00;;;4.30;;
5553;SDS011;2800;49.528;8.666;2023-08-12T00:23:41;7.80;;;4.30;;
5553;SDS011;2800;49.528;8.666;2023-08-12T00:26:08;7.50;;;4.40;;
5553;SDS011;2800;49.528;8.666;2023-08-12T00:28:33;8.27;;;4.33;;
5553;SDS011;2800;49.528;8.666;2023-08-12T00:30:59;15.10;;;4.07;;
5553;SDS011;2800;49.528;8.666;2023-08-12T00:33:25;7.60;;;4.33;;
5553;SDS011;2800;49.528;8.666;2023-08-12T00:35:51;7.33;;;4.13;;
5553;SDS011;2800;49.528;8.666;2023-08-12T00:38:16;6.70;;;4.00;;
5553;SDS011;2800;49.528;8.666;2023-08-12T00:40:42;8.13;;;4.27;;
5553;SDS011;2800;49.528;8.666;2023-08-12T00:43:08;9.37;;;4.50;;
5553;SDS011;2800;49.528;8.666;2023-08-12T00:45:34;9.27;;;4.77;;
5553;SDS011;2800;49.528;8.666;2023-08-12T00:48:00;5.87;;;3.87;;
5553;SDS011;2800;49.528;8.666;2023-08-12T00:50:26;6.07;;;4.00;;
5553;SDS011;2800;49.528;8.666;2023-08-12T00:52:52;8.17;;;4.30;;
5553;SDS011;2800;49.528;8.666;2023-08-12T00:55:18;9.80;;;4.40;;
5553;SDS011;2800;49.528;8.666;2023-08-12T00:57:44;7.40;;;3.80;;
5553;SDS011;2800;49.528;8.666;2023-08-12T01:00:09;6.50;;;4.00;;
5553;SDS011;2800;49.528;8.666;2023-08-12T01:02:36;7.50;;;4.10;;
5553;SDS011;2800;49.528;8.666;2023-08-12T01:05:01;7.97;;;3.93;;
5553;SDS011;2800;49.528;8.666;2023-08-12T01:07:27;7.00;;;3.90;;
5553;SDS011;2800;49.528;8.666;2023-08-12T01:09:53;8.13;;;4.30;;
5553;SDS011;2800;49.528;8.666;2023-08-12T01:12:22;7.10;;;4.17;;
5553;SDS011;2800;49.528;8.666;2023-08-12T01:17:26;6.97;;;4.13;;
5553;SDS011;2800;49.528;8.666;2023-08-12T01:19:54;14.77;;;4.13;;
5553;SDS011;2800;49.528;8.666;2023-08-12T01:22:21;7.80;;;4.33;;
5553;SDS011;2800;49.528;8.666;2023-08-12T01:24:51;6.67;;;3.70;;
5553;SDS011;2800;49.528;8.666;2023-08-12T01:27:17;6.20;;;4.07;;
5553;SDS011;2800;49.528;8.666;2023-08-12T01:29:44;10.40;;;4.67;;
5553;SDS011;2800;49.528;8.666;2023-08-12T01:35:09;6.87;;;4.00;;
5553;SDS011;2800;49.528;8.666;2023-08-12T01:37:54;8.33;;;5.60;;
5553;SDS011;2800;49.528;8.666;2023-08-12T01:40:22;8.10;;;5.80;;
5553;SDS011;2800;49.528;8.666;2023-08-12T01:42:49;12.20;;;5.57;;
5553;SDS011;2800;49.528;8.666;2023-08-12T01:45:15;9.13;;;5.60;;
5553;SDS011;2800;49.528;8.666;2023-08-12T01:47:43;12.57;;;6.40;;
5553;SDS011;2800;49.528;8.666;2023-08-12T01:50:09;10.73;;;5.90;;
5553;SDS011;2800;49.528;8.666;2023-08-12T01:52:35;8.13;;;5.53;;
5553;SDS011;2800;49.528;8.666;2023-08-12T01:55:00;9.07;;;5.40;;
5553;SDS011;2800;49.528;8.666;2023-08-12T01:57:26;11.60;;;5.30;;
5553;SDS011;2800;49.528;8.666;2023-08-12T01:59:51;8.77;;;5.50;;
5553;SDS011;2800;49.528;8.666;2023-08-12T02:02:17;9.00;;;5.70;;
5553;SDS011;2800;49.528;8.666;2023-08-12T02:04:42;8.03;;;4.80;;
5553;SDS011;2800;49.528;8.666;2023-08-12T02:07:09;12.70;;;4.83;;
5553;SDS011;2800;49.528;8.666;2023-08-12T02:09:34;7.67;;;4.77;;
5553;SDS011;2800;49.528;8.666;2023-08-12T02:12:00;7.27;;;4.53;;
5553;SDS011;2800;49.528;8.666;2023-08-12T02:14:25;13.93;;;5.03;;
5553;SDS011;2800;49.528;8.666;2023-08-12T02:16:51;10.87;;;4.80;;
5553;SDS011;2800;49.528;8.666;2023-08-12T02:19:16;8.77;;;5.13;;
5553;SDS011;2800;49.528;8.666;2023-08-12T02:21:42;11.30;;;6.00;;
5553;SDS011;2800;49.528;8.666;2023-08-12T02:24:08;8.23;;;5.60;;
5553;SDS011;2800;49.528;8.666;2023-08-12T02:26:34;11.50;;;5.67;;
5553;SDS011;2800;49.528;8.666;2023-08-12T02:28:59;7.33;;;4.97;;
5553;SDS011;2800;49.528;8.666;2023-08-12T02:31:25;8.80;;;4.93;;
5553;SDS011;2800;49.528;8.666;2023-08-12T02:33:51;13.80;;;5.20;;
5553;SDS011;2800;49.528;8.666;2023-08-12T02:36:16;7.70;;;4.70;;
5553;SDS011;2800;49.528;8.666;2023-08-12T02:38:42;7.43;;;5.10;;
5553;SDS011;2800;49.528;8.666;2023-08-12T02:41:07;11.90;;;4.90;;
5553;SDS011;2800;49.528;8.666;2023-08-12T02:43:33;8.10;;;4.77;;
5553;SDS011;2800;49.528;8.666;2023-08-12T02:45:59;9.37;;;4.90;;
5553;SDS011;2800;49.528;8.666;2023-08-12T02:48:24;8.53;;;4.70;;
5553;SDS011;2800;49.528;8.666;2023-08-12T02:50:50;7.30;;;4.53;;
5553;SDS011;2800;49.528;8.666;2023-08-12T02:53:15;7.37;;;4.73;;
5553;SDS011;2800;49.528;8.666;2023-08-12T02:55:41;7.90;;;4.60;;
5553;SDS011;2800;49.528;8.666;2023-08-12T02:58:06;9.57;;;5.07;;
5553;SDS011;2800;49.528;8.666;2023-08-12T03:00:32;9.97;;;4.60;;
5553;SDS011;2800;49.528;8.666;2023-08-12T03:02:57;8.63;;;5.30;;
5553;SDS011;2800;49.528;8.666;2023-08-12T03:05:23;8.50;;;5.20;;
5553;SDS011;2800;49.528;8.666;2023-08-12T03:07:49;8.90;;;5.07;;
5553;SDS011;2800;49.528;8.666;2023-08-12T03:10:15;11.67;;;5.43;;
5553;SDS011;2800;49.528;8.666;2023-08-12T03:12:40;7.03;;;4.73;;
5553;SDS011;2800;49.528;8.666;2023-08-12T03:15:06;8.50;;;5.40;;
5553;SDS011;2800;49.528;8.666;2023-08-12T03:17:32;10.87;;;5.20;;
5553;SDS011;2800;49.528;8.666;2023-08-12T03:19:58;9.73;;;5.33;;
5553;SDS011;2800;49.528;8.666;2023-08-12T03:22:29;9.43;;;5.20;;
5553;SDS011;2800;49.528;8.666;2023-08-12T03:24:55;11.80;;;5.07;;
5553;SDS011;2800;49.528;8.666;2023-08-12T03:27:21;9.70;;;5.50;;
5553;SDS011;2800;49.528;8.666;2023-08-12T03:29:46;10.60;;;5.53;;
5553;SDS011;2800;49.528;8.666;2023-08-12T03:32:12;10.07;;;5.50;;
5553;SDS011;2800;49.528;8.666;2023-08-12T03:34:38;9.67;;;5.70;;
5553;SDS011;2800;49.528;8.666;2023-08-12T03:37:03;9.47;;;5.37;;
5553;SDS011;2800;49.528;8.666;2023-08-12T03:39:29;9.03;;;6.13;;
5553;SDS011;2800;49.528;8.666;2023-08-12T03:41:54;9.80;;;6.30;;
5553;SDS011;2800;49.528;8.666;2023-08-12T03:44:20;11.70;;;6.53;;
5553;SDS011;2800;49.528;8.666;2023-08-12T03:46:45;14.53;;;7.10;;
5553;SDS011;2800;49.528;8.666;2023-08-12T03:49:11;13.70;;;7.60;;
5553;SDS011;2800;49.528;8.666;2023-08-12T03:51:36;11.10;;;8.13;;
5553;SDS011;2800;49.528;8.666;2023-08-12T03:54:02;13.40;;;7.90;;
5553;SDS011;2800;49.528;8.666;2023-08-12T03:56:28;13.93;;;7.40;;
5553;SDS011;2800;49.528;8.666;2023-08-12T03:58:54;12.37;;;8.03;;
5553;SDS011;2800;49.528;8.666;2023-08-12T04:01:20;11.50;;;7.50;;
5553;SDS011;2800;49.528;8.666;2023-08-12T04:03:45;11.73;;;7.13;;
5553;SDS011;2800;49.528;8.666;2023-08-12T04:06:11;11.47;;;7.00;;
5553;SDS011;2800;49.528;8.666;2023-08-12T04:08:36;10.20;;;6.40;;
5553;SDS011;2800;49.528;8.666;2023-08-12T04:11:01;11.47;;;5.80;;
5553;SDS011;2800;49.528;8.666;2023-08-12T04:13:27;10.17;;;6.07;;
5553;SDS011;2800;49.528;8.666;2023-08-12T04:15:53;8.83;;;5.93;;
5553;SDS011;2800;49.528;8.666;2023-08-12T04:18:18;10.70;;;6.07;;
5553;SDS011;2800;49.528;8.666;2023-08-12T04:20:50;7.67;;;5.50;;
5553;SDS011;2800;49.528;8.666;2023-08-12T04:23:16;16.80;;;6.30;;
5553;SDS011;2800;49.528;8.666;2023-08-12T04:25:43;12.80;;;5.97;;
5553;SDS011;2800;49.528;8.666;2023-08-12T04:28:10;16.50;;;5.90;;
5553;SDS011;2800;49.528;8.666;2023-08-12T04:30:36;9.93;;;5.80;;
5553;SDS011;2800;49.528;8.666;2023-08-12T04:33:06;9.83;;;5.83;;
5553;SDS011;2800;49.528;8.666;2023-08-12T04:35:32;10.40;;;5.90;;
5553;SDS011;2800;49.528;8.666;2023-08-12T04:37:57;15.40;;;6.00;;
5553;SDS011;2800;49.528;8.666;2023-08-12T04:40:23;10.37;;;5.90;;
5553;SDS011;2800;49.528;8.666;2023-08-12T04:42:48;12.57;;;6.00;;
5553;SDS011;2800;49.528;8.666;2023-08-12T04:45:14;9.00;;;5.90;;
5553;SDS011;2800;49.528;8.666;2023-08-12T04:47:39;11.83;;;6.23;;
5553;SDS011;2800;49.528;8.666;2023-08-12T04:50:05;12.20;;;6.33;;
5553;SDS011;2800;49.528;8.666;2023-08-12T04:52:31;10.70;;;5.73;;
5553;SDS011;2800;49.528;8.666;2023-08-12T04:54:57;16.87;;;6.63;;
5553;SDS011;2800;49.528;8.666;2023-08-12T04:57:22;11.53;;;6.30;;
5553;SDS011;2800;49.528;8.666;2023-08-12T04:59:48;9.10;;;5.83;;
5553;SDS011;2800;49.528;8.666;2023-08-12T05:02:13;10.40;;;5.97;;
5553;SDS011;2800;49.528;8.666;2023-08-12T05:04:39;9.23;;;6.03;;
5553;SDS011;2800;49.528;8.666;2023-08-12T05:07:04;8.33;;;6.03;;
5553;SDS011;2800;49.528;8.666;2023-08-12T05:09:30;10.07;;;6.10;;
5553;SDS011;2800;49.528;8.666;2023-08-12T05:11:56;10.83;;;5.67;;
5553;SDS011;2800;49.528;8.666;2023-08-12T05:14:21;9.03;;;5.60;;
5553;SDS011;2800;49.528;8.666;2023-08-12T05:16:47;17.23;;;5.60;;
5553;SDS011;2800;49.528;8.666;2023-08-12T05:19:12;9.90;;;5.87;;
5553;SDS011;2800;49.528;8.666;2023-08-12T05:21:38;10.40;;;5.80;;
5553;SDS011;2800;49.528;8.666;2023-08-12T05:24:03;9.07;;;5.90;;
5553;SDS011;2800;49.528;8.666;2023-08-12T05:26:29;10.13;;;6.30;;
5553;SDS011;2800;49.528;8.666;2023-08-12T05:28:54;11.30;;;5.80;;
5553;SDS011;2800;49.528;8.666;2023-08-12T05:31:20;7.80;;;5.47;;
5553;SDS011;2800;49.528;8.666;2023-08-12T05:33:45;9.23;;;5.60;;
5553;SDS011;2800;49.528;8.666;2023-08-12T05:36:11;8.20;;;5.83;;
5553;SDS011;2800;49.528;8.666;2023-08-12T05:38:36;8.70;;;5.57;;
5553;SDS011;2800;49.528;8.666;2023-08-12T05:41:02;12.00;;;6.00;;
5553;SDS011;2800;49.528;8.666;2023-08-12T05:43:32;11.33;;;6.23;;
5553;SDS011;2800;49.528;8.666;2023-08-12T05:45:57;12.80;;;5.97;;
5553;SDS011;2800;49.528;8.666;2023-08-12T05:48:23;10.00;;;5.33;;
5553;SDS011;2800;49.528;8.666;2023-08-12T05:50:48;13.67;;;7.07;;
5553;SDS011;2800;49.528;8.666;2023-08-12T05:53:14;13.63;;;6.30;;
5553;SDS011;2800;49.528;8.666;2023-08-12T05:55:39;10.50;;;6.37;;
5553;SDS011;2800;49.528;8.666;2023-08-12T05:58:05;9.23;;;6.60;;
5553;SDS011;2800;49.528;8.666;2023-08-12T06:00:30;11.33;;;6.30;;
5553;SDS011;2800;49.528;8.666;2023-08-12T06:02:56;16.73;;;8.57;;
5553;SDS011;2800;49.528;8.666;2023-08-12T06:05:21;10.60;;;7.63;;
5553;SDS011;2800;49.528;8.666;2023-08-12T06:07:47;10.10;;;6.23;;
5553;SDS011;2800;49.528;8.666;2023-08-12T06:10:12;12.47;;;6.13;;
5553;SDS011;2800;49.528;8.666;2023-08-12T06:12:38;18.57;;;6.63;;
5553;SDS011;2800;49.528;8.666;2023-08-12T06:15:03;12.53;;;5.80;;
5553;SDS011;2800;49.528;8.666;2023-08-12T06:17:29;11.00;;;6.47;;
5553;SDS011;2800;49.528;8.666;2023-08-12T06:19:55;15.70;;;5.80;;
5553;SDS011;2800;49.528;8.666;2023-08-12T06:22:20;11.20;;;7.70;;
5553;SDS011;2800;49.528;8.666;2023-08-12T06:24:46;10.87;;;7.90;;
5553;SDS011;2800;49.528;8.666;2023-08-12T06:27:11;11.17;;;8.10;;
5553;SDS011;2800;49.528;8.666;2023-08-12T06:29:37;13.70;;;8.33;;
5553;SDS011;2800;49.528;8.666;2023-08-12T06:32:02;10.43;;;7.80;;
5553;SDS011;2800;49.528;8.666;2023-08-12T06:34:28;14.80;;;8.23;;
5553;SDS011;2800;49.528;8.666;2023-08-12T06:36:53;11.90;;;7.47;;
5553;SDS011;2800;49.528;8.666;2023-08-12T06:39:19;23.17;;;8.10;;
5553;SDS011;2800;49.528;8.666;2023-08-12T06:41:44;12.57;;;7.50;;
5553;SDS011;2800;49.528;8.666;2023-08-12T06:44:10;14.57;;;7.47;;
5553;SDS011;2800;49.528;8.666;2023-08-12T06:46:35;13.03;;;6.83;;
5553;SDS011;2800;49.528;8.666;2023-08-12T06:49:01;11.13;;;6.60;;
5553;SDS011;2800;49.528;8.666;2023-08-12T06:51:26;11.80;;;6.03;;
5553;SDS011;2800;49.528;8.666;2023-08-12T06:53:52;9.60;;;6.10;;
5553;SDS011;2800;49.528;8.666;2023-08-12T06:56:17;9.27;;;6.30;;
5553;SDS011;2800;49.528;8.666;2023-08-12T06:58:43;8.87;;;6.30;;
5553;SDS011;2800;49.528;8.666;2023-08-12T07:01:08;9.30;;;6.10;;
5553;SDS011;2800;49.528;8.666;2023-08-12T07:03:34;12.80;;;6.77;;
5553;SDS011;2800;49.528;8.666;2023-08-12T07:05:59;9.60;;;6.10;;
5553;SDS011;2800;49.528;8.666;2023-08-12T07:08:25;19.10;;;6.43;;
5553;SDS011;2800;49.528;8.666;2023-08-12T07:10:52;11.53;;;6.97;;
5553;SDS011;2800;49.528;8.666;2023-08-12T07:13:18;9.33;;;5.70;;
5553;SDS011;2800;49.528;8.666;2023-08-12T07:15:43;10.27;;;6.10;;
5553;SDS011;2800;49.528;8.666;2023-08-12T07:18:09;16.80;;;6.43;;
5553;SDS011;2800;49.528;8.666;2023-08-12T07:20:35;10.10;;;6.00;;
5553;SDS011;2800;49.528;8.666;2023-08-12T07:23:00;12.77;;;7.27;;
5553;SDS011;2800;49.528;8.666;2023-08-12T07:25:26;10.87;;;6.33;;
5553;SDS011;2800;49.528;8.666;2023-08-12T07:27:51;9.00;;;6.20;;
5553;SDS011;2800;49.528;8.666;2023-08-12T07:30:17;16.03;;;6.93;;
5553;SDS011;2800;49.528;8.666;2023-08-12T07:32:42;11.13;;;7.27;;
5553;SDS011;2800;49.528;8.666;2023-08-12T07:35:08;12.20;;;7.03;;
5553;SDS011;2800;49.528;8.666;2023-08-12T07:37:34;15.00;;;8.17;;
5553;SDS011;2800;49.528;8.666;2023-08-12T07:39:59;15.90;;;8.00;;
5553;SDS011;2800;49.528;8.666;2023-08-12T07:42:25;12.53;;;7.17;;
5553;SDS011;2800;49.528;8.666;2023-08-12T07:44:50;22.40;;;7.60;;
5553;SDS011;2800;49.528;8.666;2023-08-12T07:47:16;16.90;;;7.43;;
5553;SDS011;2800;49.528;8.666;2023-08-12T07:49:42;13.77;;;6.60;;
5553;SDS011;2800;49.528;8.666;2023-08-12T07:52:08;10.60;;;6.73;;
5553;SDS011;2800;49.528;8.666;2023-08-12T07:54:33;10.77;;;6.73;;
5553;SDS011;2800;49.528;8.666;2023-08-12T07:56:59;10.80;;;7.00;;
5553;SDS011;2800;49.528;8.666;2023-08-12T07:59:24;9.13;;;6.63;;
5553;SDS011;2800;49.528;8.666;2023-08-12T08:01:50;9.93;;;7.00;;
5553;SDS011;2800;49.528;8.666;2023-08-12T08:04:16;14.00;;;6.80;;
5553;SDS011;2800;49.528;8.666;2023-08-12T08:06:42;14.00;;;6.40;;
5553;SDS011;2800;49.528;8.666;2023-08-12T08:09:07;13.83;;;7.27;;
5553;SDS011;2800;49.528;8.666;2023-08-12T08:11:33;12.30;;;6.80;;
5553;SDS011;2800;49.528;8.666;2023-08-12T08:13:59;10.97;;;6.53;;
5553;SDS011;2800;49.528;8.666;2023-08-12T08:16:25;13.20;;;6.70;;
5553;SDS011;2800;49.528;8.666;2023-08-12T08:18:50;12.70;;;6.60;;
5553;SDS011;2800;49.528;8.666;2023-08-12T08:21:16;23.33;;;6.93;;
5553;SDS011;2800;49.528;8.666;2023-08-12T08:23:41;13.50;;;6.60;;
5553;SDS011;2800;49.528;8.666;2023-08-12T08:26:08;9.00;;;6.23;;
5553;SDS011;2800;49.528;8.666;2023-08-12T08:28:34;10.23;;;6.93;;
5553;SDS011;2800;49.528;8.666;2023-08-12T08:30:59;10.70;;;7.00;;
5553;SDS011;2800;49.528;8.666;2023-08-12T08:33:26;15.60;;;7.23;;
5553;SDS011;2800;49.528;8.666;2023-08-12T08:35:52;14.13;;;7.63;;
5553;SDS011;2800;49.528;8.666;2023-08-12T08:38:18;16.00;;;7.87;;
5553;SDS011;2800;49.528;8.666;2023-08-12T08:40:43;15.93;;;8.20;;
5553;SDS011;2800;49.528;8.666;2023-08-12T08:43:09;13.70;;;8.37;;
5553;SDS011;2800;49.528;8.666;2023-08-12T08:45:39;12.77;;;9.60;;
5553;SDS011;2800;49.528;8.666;2023-08-12T08:48:07;10.83;;;8.60;;
5553;SDS011;2800;49.528;8.666;2023-08-12T08:50:33;21.17;;;8.07;;
5553;SDS011;2800;49.528;8.666;2023-08-12T08:52:59;12.07;;;7.57;;
5553;SDS011;2800;49.528;8.666;2023-08-12T08:55:26;15.07;;;9.00;;
5553;SDS011;2800;49.528;8.666;2023-08-12T08:57:52;16.73;;;6.90;;
5553;SDS011;2800;49.528;8.666;2023-08-12T09:00:17;14.00;;;7.90;;
5553;SDS011;2800;49.528;8.666;2023-08-12T09:02:44;12.03;;;7.83;;
5553;SDS011;2800;49.528;8.666;2023-08-12T09:05:16;12.90;;;8.13;;
5553;SDS011;2800;49.528;8.666;2023-08-12T09:07:42;10.10;;;8.00;;
5553;SDS011;2800;49.528;8.666;2023-08-12T09:10:12;15.40;;;7.40;;
5553;SDS011;2800;49.528;8.666;2023-08-12T09:12:38;11.40;;;8.47;;
5553;SDS011;2800;49.528;8.666;2023-08-12T09:15:04;13.33;;;7.20;;
5553;SDS011;2800;49.528;8.666;2023-08-12T09:17:31;18.33;;;7.27;;
5553;SDS011;2800;49.528;8.666;2023-08-12T09:19:57;18.73;;;6.90;;
5553;SDS011;2800;49.528;8.666;2023-08-12T09:22:26;15.10;;;7.60;;
5553;SDS011;2800;49.528;8.666;2023-08-12T09:24:58;12.53;;;6.90;;
5553;SDS011;2800;49.528;8.666;2023-08-12T09:27:24;13.40;;;6.77;;
5553;SDS011;2800;49.528;8.666;2023-08-12T09:29:50;10.07;;;6.73;;
5553;SDS011;2800;49.528;8.666;2023-08-12T09:32:20;13.23;;;6.90;;
5553;SDS011;2800;49.528;8.666;2023-08-12T09:34:46;9.03;;;6.10;;
5553;SDS011;2800;49.528;8.666;2023-08-12T09:37:13;10.93;;;6.07;;
5553;SDS011;2800;49.528;8.666;2023-08-12T09:39:38;10.20;;;7.00;;
5553;SDS011;2800;49.528;8.666;2023-08-12T09:42:05;17.67;;;6.90;;
5553;SDS011;2800;49.528;8.666;2023-08-12T09:44:30;12.17;;;6.50;;
5553;SDS011;2800;49.528;8.666;2023-08-12T09:47:00;12.50;;;6.50;;
5553;SDS011;2800;49.528;8.666;2023-08-12T09:49:25;9.40;;;5.70;;
5553;SDS011;2800;49.528;8.666;2023-08-12T09:51:51;10.50;;;6.27;;
5553;SDS011;2800;49.528;8.666;2023-08-12T09:54:18;12.27;;;5.83;;
5553;SDS011;2800;49.528;8.666;2023-08-12T09:56:44;12.80;;;6.43;;
5553;SDS011;2800;49.528;8.666;2023-08-12T09:59:13;8.63;;;6.50;;
5553;SDS011;2800;49.528;8.666;2023-08-12T10:01:44;12.10;;;6.90;;
5553;SDS011;2800;49.528;8.666;2023-08-12T10:04:11;9.67;;;6.13;;
5553;SDS011;2800;49.528;8.666;2023-08-12T10:06:40;11.47;;;6.83;;
5553;SDS011;2800;49.528;8.666;2023-08-12T10:09:05;9.53;;;6.40;;
5553;SDS011;2800;49.528;8.666;2023-08-12T10:11:33;9.27;;;6.60;;
5553;SDS011;2800;49.528;8.666;2023-08-12T10:14:00;14.37;;;8.30;;
5553;SDS011;2800;49.528;8.666;2023-08-12T10:16:26;10.60;;;6.00;;
5553;SDS011;2800;49.528;8.666;2023-08-12T10:18:54;8.60;;;6.27;;
5553;SDS011;2800;49.528;8.666;2023-08-12T10:21:22;11.37;;;6.27;;
5553;SDS011;2800;49.528;8.666;2023-08-12T10:23:48;16.90;;;6.40;;
5553;SDS011;2800;49.528;8.666;2023-08-12T10:26:15;10.93;;;5.30;;
5553;SDS011;2800;49.528;8.666;2023-08-12T10:28:42;10.60;;;5.80;;
5553;SDS011;2800;49.528;8.666;2023-08-12T10:31:08;12.83;;;6.20;;
5553;SDS011;2800;49.528;8.666;2023-08-12T10:33:37;9.17;;;6.00;;
5553;SDS011;2800;49.528;8.666;2023-08-12T10:36:03;10.37;;;6.40;;
5553;SDS011;2800;49.528;8.666;2023-08-12T10:38:30;12.73;;;6.30;;
5553;SDS011;2800;49.528;8.666;2023-08-12T10:41:14;12.43;;;6.27;;
5553;SDS011;2800;49.528;8.666;2023-08-12T10:46:49;21.07;;;7.80;;
5553;SDS011;2800;49.528;8.666;2023-08-12T10:49:14;10.03;;;6.60;;
5553;SDS011;2800;49.528;8.666;2023-08-12T10:54:28;9.97;;;6.80;;
5553;SDS011;2800;49.528;8.666;2023-08-12T11:05:02;16.30;;;6.93;;
5553;SDS011;2800;49.528;8.666;2023-08-12T11:12:40;14.60;;;6.87;;
5553;SDS011;2800;49.528;8.666;2023-08-12T11:15:07;15.07;;;7.10;;
5553;SDS011;2800;49.528;8.666;2023-08-12T11:17:35;16.03;;;7.33;;
5553;SDS011;2800;49.528;8.666;2023-08-12T11:20:03;15.80;;;7.70;;
5553;SDS011;2800;49.528;8.666;2023-08-12T11:22:44;14.03;;;7.30;;
5553;SDS011;2800;49.528;8.666;2023-08-12T11:25:10;14.03;;;7.90;;
5553;SDS011;2800;49.528;8.666;2023-08-12T11:30:07;10.97;;;7.17;;
5553;SDS011;2800;49.528;8.666;2023-08-12T11:32:35;11.73;;;7.20;;
5553;SDS011;2800;49.528;8.666;2023-08-12T11:35:02;11.90;;;6.80;;
5553;SDS011;2800;49.528;8.666;2023-08-12T11:37:29;13.93;;;6.37;;
5553;SDS011;2800;49.528;8.666;2023-08-12T11:39:54;25.90;;;5.60;;
5553;SDS011;2800;49.528;8.666;2023-08-12T11:42:20;18.90;;;5.80;;
5553;SDS011;2800;49.528;8.666;2023-08-12T11:44:45;9.60;;;4.50;;
5553;SDS011;2800;49.528;8.666;2023-08-12T11:47:11;8.90;;;2.90;;
5553;SDS011;2800;49.528;8.666;2023-08-12T11:49:36;5.13;;;2.10;;
5553;SDS011;2800;49.528;8.666;2023-08-12T11:52:02;5.30;;;2.23;;
5553;SDS011;2800;49.528;8.666;2023-08-12T11:54:28;8.57;;;2.40;;
5553;SDS011;2800;49.528;8.666;2023-08-12T11:56:54;13.50;;;2.63;;
5553;SDS011;2800;49.528;8.666;2023-08-12T11:59:21;10.57;;;3.50;;
5553;SDS011;2800;49.528;8.666;2023-08-12T12:01:49;9.03;;;2.30;;
5553;SDS011;2800;49.528;8.666;2023-08-12T12:04:15;5.40;;;1.67;;
5553;SDS011;2800;49.528;8.666;2023-08-12T12:06:41;5.33;;;1.50;;
5553;SDS011;2800;49.528;8.666;2023-08-12T12:09:07;5.30;;;1.70;;
5553;SDS011;2800;49.528;8.666;2023-08-12T12:11:38;4.63;;;1.53;;
5553;SDS011;2800;49.528;8.666;2023-08-12T12:14:04;5.63;;;1.80;;
5553;SDS011;2800;49.528;8.666;2023-08-12T12:16:44;4.63;;;1.70;;
5553;SDS011;2800;49.528;8.666;2023-08-12T12:19:15;4.80;;;1.50;;
5553;SDS011;2800;49.528;8.666;2023-08-12T12:21:42;4.27;;;1.27;;
5553;SDS011;2800;49.528;8.666;2023-08-12T12:24:10;7.63;;;1.30;;
5553;SDS011;2800;49.528;8.666;2023-08-12T12:26:35;4.20;;;1.10;;
5553;SDS011;2800;49.528;8.666;2023-08-12T12:29:02;4.63;;;1.30;;
5553;SDS011;2800;49.528;8.666;2023-08-12T12:31:29;4.13;;;1.30;;
5553;SDS011;2800;49.528;8.666;2023-08-12T12:33:56;5.10;;;1.30;;
5553;SDS011;2800;49.528;8.666;2023-08-12T12:36:21;5.13;;;1.60;;
5553;SDS011;2800;49.528;8.666;2023-08-12T12:38:47;5.63;;;1.60;;
5553;SDS011;2800;49.528;8.666;2023-08-12T12:41:12;5.10;;;1.90;;
5553;SDS011;2800;49.528;8.666;2023-08-12T12:43:38;4.10;;;1.40;;
5553;SDS011;2800;49.528;8.666;2023-08-12T12:46:03;10.43;;;2.00;;
5553;SDS011;2800;49.528;8.666;2023-08-12T12:48:29;6.63;;;2.03;;
5553;SDS011;2800;49.528;8.666;2023-08-12T12:50:55;8.40;;;2.03;;
5553;SDS011;2800;49.528;8.666;2023-08-12T12:53:20;4.90;;;2.00;;
5553;SDS011;2800;49.528;8.666;2023-08-12T12:55:46;5.13;;;1.87;;
5553;SDS011;2800;49.528;8.666;2023-08-12T12:58:11;5.23;;;2.10;;
5553;SDS011;2800;49.528;8.666;2023-08-12T13:00:37;4.80;;;1.90;;
5553;SDS011;2800;49.528;8.666;2023-08-12T13:03:02;5.13;;;1.90;;
5553;SDS011;2800;49.528;8.666;2023-08-12T13:05:28;6.67;;;1.90;;
5553;SDS011;2800;49.528;8.666;2023-08-12T13:07:54;5.60;;;1.73;;
5553;SDS011;2800;49.528;8.666;2023-08-12T13:10:19;6.07;;;2.53;;
5553;SDS011;2800;49.528;8.666;2023-08-12T13:12:45;5.30;;;2.30;;
5553;SDS011;2800;49.528;8.666;2023-08-12T13:15:10;6.90;;;2.70;;
5553;SDS011;2800;49.528;8.666;2023-08-12T13:17:36;5.60;;;2.53;;
5553;SDS011;2800;49.528;8.666;2023-08-12T13:20:02;5.53;;;2.70;;
5553;SDS011;2800;49.528;8.666;2023-08-12T13:22:28;8.27;;;2.60;;
5553;SDS011;2800;49.528;8.666;2023-08-12T13:24:54;5.70;;;2.60;;
5553;SDS011;2800;49.528;8.666;2023-08-12T13:27:19;5.23;;;2.33;;
5553;SDS011;2800;49.528;8.666;2023-08-12T13:29:45;6.27;;;2.50;;
5553;SDS011;2800;49.528;8.666;2023-08-12T13:32:10;6.03;;;2.27;;
5553;SDS011;2800;49.528;8.666;2023-08-12T13:34:36;6.57;;;2.47;;
5553;SDS011;2800;49.528;8.666;2023-08-12T13:37:02;5.40;;;2.10;;
5553;SDS011;2800;49.528;8.666;2023-08-12T13:39:27;7.50;;;2.90;;
5553;SDS011;2800;49.528;8.666;2023-08-12T13:41:53;10.10;;;2.60;;
5553;SDS011;2800;49.528;8.666;2023-08-12T13:44:19;6.70;;;2.57;;
5553;SDS011;2800;49.528;8.666;2023-08-12T13:46:45;6.30;;;2.47;;
5553;SDS011;2800;49.528;8.666;2023-08-12T13:49:10;7.63;;;2.90;;
5553;SDS011;2800;49.528;8.666;2023-08-12T13:51:36;6.10;;;2.83;;
5553;SDS011;2800;49.528;8.666;2023-08-12T13:54:02;8.80;;;2.60;;
5553;SDS011;2800;49.528;8.666;2023-08-12T13:56:28;5.40;;;2.97;;
5553;SDS011;2800;49.528;8.666;2023-08-12T13:58:53;9.20;;;2.83;;
5553;SDS011;2800;49.528;8.666;2023-08-12T14:01:19;10.13;;;2.90;;
5553;SDS011;2800;49.528;8.666;2023-08-12T14:03:44;8.43;;;3.50;;
5553;SDS011;2800;49.528;8.666;2023-08-12T14:06:10;8.57;;;3.33;;
5553;SDS011;2800;49.528;8.666;2023-08-12T14:08:36;8.40;;;3.27;;
5553;SDS011;2800;49.528;8.666;2023-08-12T14:11:01;9.63;;;3.93;;
5553;SDS011;2800;49.528;8.666;2023-08-12T14:13:27;7.87;;;4.17;;
5553;SDS011;2800;49.528;8.666;2023-08-12T14:15:53;8.00;;;3.80;;
5553;SDS011;2800;49.528;8.666;2023-08-12T14:18:19;7.40;;;3.60;;
5553;SDS011;2800;49.528;8.666;2023-08-12T14:20:44;10.30;;;3.63;;
5553;SDS011;2800;49.528;8.666;2023-08-12T14:23:10;7.70;;;3.67;;
5553;SDS011;2800;49.528;8.666;2023-08-12T14:25:35;7.80;;;4.50;;
5553;SDS011;2800;49.528;8.666;2023-08-12T14:28:01;7.57;;;4.10;;
5553;SDS011;2800;49.528;8.666;2023-08-12T14:30:26;7.23;;;4.27;;
5553;SDS011;2800;49.528;8.666;2023-08-12T14:32:52;10.10;;;4.50;;
5553;SDS011;2800;49.528;8.666;2023-08-12T14:35:18;7.53;;;4.50;;
5553;SDS011;2800;49.528;8.666;2023-08-12T14:37:44;8.80;;;4.60;;
5553;SDS011;2800;49.528;8.666;2023-08-12T14:40:09;8.37;;;4.20;;
5553;SDS011;2800;49.528;8.666;2023-08-12T14:42:35;8.80;;;4.40;;
5553;SDS011;2800;49.528;8.666;2023-08-12T14:45:01;9.97;;;4.07;;
5553;SDS011;2800;49.528;8.666;2023-08-12T14:47:27;8.87;;;3.80;;
5553;SDS011;2800;49.528;8.666;2023-08-12T14:49:52;8.20;;;3.63;;
5553;SDS011;2800;49.528;8.666;2023-08-12T14:52:19;7.53;;;3.90;;
5553;SDS011;2800;49.528;8.666;2023-08-12T14:54:45;7.43;;;3.97;;
5553;SDS011;2800;49.528;8.666;2023-08-12T14:57:11;6.80;;;3.53;;
5553;SDS011;2800;49.528;8.666;2023-08-12T14:59:36;8.87;;;4.30;;
5553;SDS011;2800;49.528;8.666;2023-08-12T15:02:02;7.83;;;3.47;;
5553;SDS011;2800;49.528;8.666;2023-08-12T15:04:28;7.17;;;4.07;;
5553;SDS011;2800;49.528;8.666;2023-08-12T15:06:53;7.37;;;3.90;;
5553;SDS011;2800;49.528;8.666;2023-08-12T15:09:19;9.67;;;4.20;;
5553;SDS011;2800;49.528;8.666;2023-08-12T15:11:44;7.40;;;3.80;;
5553;SDS011;2800;49.528;8.666;2023-08-12T15:14:10;8.70;;;4.20;;
5553;SDS011;2800;49.528;8.666;2023-08-12T15:16:36;7.83;;;4.40;;
5553;SDS011;2800;49.528;8.666;2023-08-12T15:19:02;7.87;;;4.83;;
5553;SDS011;2800;49.528;8.666;2023-08-12T15:21:28;9.87;;;4.70;;
5553;SDS011;2800;49.528;8.666;2023-08-12T15:23:54;10.07;;;4.93;;
5553;SDS011;2800;49.528;8.666;2023-08-12T15:26:20;9.20;;;4.83;;
5553;SDS011;2800;49.528;8.666;2023-08-12T15:28:47;10.30;;;5.60;;